Time;durP1;ratioP1;P1;durP2;ratioP2;P2;SDS_P1;SDS_P2;PMS_P1;PMS_P2;Temp;Humidity;BMP_temperature;BMP_pressure;BME280_temperature;BME280_humidity;BME280_pressure;Samples;Min_cycle;Max_cycle;Signal;HPM_P1;HPM_P2
2021/03/05 00:00:13;;;;;;;0.75;0.30;;;0.90;99.90;;;;;;4930201;29;20055;-74
2021/03/05 00:02:39;;;;;;;0.60;0.30;;;0.80;99.90;;;;;;4930428;29;20052;-73
2021/03/05 00:05:06;;;;;;;1.88;0.50;;;0.80;99.90;;;;;;4929034;29;20044;-74
2021/03/05 00:07:32;;;;;;;2.00;0.75;;;0.80;99.90;;;;;;4929193;29;20450;-74
2021/03/05 00:09:58;;;;;;;1.75;0.47;;;0.80;99.90;;;;;;4930335;29;20036;-75
2021/03/05 00:12:23;;;;;;;0.63;0.25;;;0.80;99.90;;;;;;4930433;29;20032;-74
2021/03/05 00:14:49;;;;;;;0.45;0.32;;;0.70;99.90;;;;;;4928672;29;20032;-75
2021/03/05 00:17:15;;;;;;;1.30;0.52;;;0.70;99.90;;;;;;4930535;29;20082;-75
2021/03/05 00:19:41;;;;;;;25.60;0.73;;;0.70;99.90;;;;;;4930033;29;20051;-75
2021/03/05 00:22:07;;;;;;;0.63;0.30;;;0.70;99.90;;;;;;4930076;29;20036;-74
2021/03/05 00:24:34;;;;;;;3.03;0.88;;;0.70;99.90;;;;;;4929742;29;20120;-74
2021/03/05 00:27:00;;;;;;;0.45;0.30;;;0.70;99.90;;;;;;4930021;29;20084;-74
2021/03/05 00:29:26;;;;;;;0.10;0.10;;;0.70;99.90;;;;;;4928737;29;20036;-75
2021/03/05 00:31:51;;;;;;;0.32;0.30;;;0.70;99.90;;;;;;4928743;29;20036;-74
2021/03/05 00:34:17;;;;;;;0.77;0.60;;;0.60;99.90;;;;;;4929682;29;20066;-74
2021/03/05 00:36:45;;;;;;;0.75;0.30;;;0.60;99.90;;;;;;4930082;29;20032;-74
2021/03/05 00:39:10;;;;;;;1.40;0.30;;;0.60;99.90;;;;;;4929860;29;20043;-74
2021/03/05 00:41:36;;;;;;;2.50;0.40;;;0.60;99.90;;;;;;4929785;29;20056;-74
2021/03/05 00:44:05;;;;;;;0.88;0.30;;;0.60;99.90;;;;;;4929694;29;20036;-73
2021/03/05 00:46:31;;;;;;;0.20;0.20;;;0.60;99.90;;;;;;4929715;29;20076;-73
2021/03/05 00:48:57;;;;;;;0.50;0.35;;;0.50;99.90;;;;;;4929860;29;20032;-74
2021/03/05 00:51:23;;;;;;;6.55;0.98;;;0.50;99.90;;;;;;4928195;29;20131;-74
2021/03/05 00:53:49;;;;;;;1.55;0.43;;;0.50;99.90;;;;;;4929580;29;20032;-75
2021/03/05 00:56:15;;;;;;;5.75;0.60;;;0.50;99.90;;;;;;4929655;29;20493;-75
2021/03/05 00:58:41;;;;;;;0.70;0.65;;;0.50;99.90;;;;;;4928260;29;20036;-74
2021/03/05 01:01:07;;;;;;;0.20;0.17;;;0.50;99.90;;;;;;4928144;29;20036;-74
2021/03/05 01:03:33;;;;;;;1.25;0.50;;;0.50;99.90;;;;;;4928610;29;20568;-74
2021/03/05 01:05:59;;;;;;;1.02;0.30;;;0.50;99.90;;;;;;4929400;29;20028;-74
2021/03/05 01:08:24;;;;;;;0.65;0.20;;;0.50;99.90;;;;;;4928672;29;20541;-74
2021/03/05 01:10:51;;;;;;;1.95;0.80;;;0.50;99.90;;;;;;4927651;29;20028;-75
2021/03/05 01:13:17;;;;;;;0.82;0.55;;;0.50;99.90;;;;;;4925220;29;20036;-76
2021/03/05 01:15:43;;;;;;;0.45;0.35;;;0.50;99.90;;;;;;4928424;29;20028;-74
2021/03/05 01:18:09;;;;;;;3.25;0.80;;;0.40;99.90;;;;;;4929087;29;20032;-73
2021/03/05 01:20:35;;;;;;;1.05;0.63;;;0.40;99.90;;;;;;4928992;29;20099;-74
2021/03/05 01:23:00;;;;;;;0.93;0.30;;;0.40;99.90;;;;;;4925649;29;20123;-74
2021/03/05 01:25:29;;;;;;;1.30;0.40;;;0.40;99.90;;;;;;4923842;29;20024;-74
2021/03/05 01:27:55;;;;;;;1.02;0.45;;;0.30;99.90;;;;;;4928732;29;20043;-74
2021/03/05 01:30:21;;;;;;;1.77;0.88;;;0.30;99.90;;;;;;4928646;29;20032;-73
2021/03/05 01:32:48;;;;;;;2.15;0.38;;;0.30;99.90;;;;;;4928694;29;20445;-75
2021/03/05 01:35:21;;;;;;;0.85;0.52;;;0.30;99.90;;;;;;4928742;29;20146;-75
2021/03/05 01:37:47;;;;;;;0.55;0.22;;;0.30;99.90;;;;;;4927554;29;20063;-74
2021/03/05 01:40:25;;;;;;;0.85;0.50;;;0.30;99.90;;;;;;4928934;29;20055;-74
2021/03/05 01:42:51;;;;;;;1.75;0.65;;;0.30;99.90;;;;;;4927664;29;20039;-75
2021/03/05 01:45:23;;;;;;;0.10;0.10;;;0.20;99.90;;;;;;4928743;29;20032;-75
2021/03/05 01:47:54;;;;;;;1.10;0.60;;;0.20;99.90;;;;;;4928659;29;20036;-75
2021/03/05 01:50:29;;;;;;;2.40;1.27;;;0.10;99.90;;;;;;4928448;29;20108;-74
2021/03/05 01:53:05;;;;;;;3.97;0.65;;;0.10;99.90;;;;;;4927083;29;20035;-75
2021/03/05 01:55:31;;;;;;;2.13;0.75;;;0.10;99.90;;;;;;4928751;29;20024;-74
2021/03/05 01:57:57;;;;;;;0.35;0.30;;;0.20;99.90;;;;;;4928681;29;20064;-74
2021/03/05 02:00:40;;;;;;;0.40;0.30;;;0.20;99.90;;;;;;4927071;29;20111;-75
2021/03/05 02:03:06;;;;;;;1.95;0.80;;;0.10;99.90;;;;;;4928233;29;20067;-74
2021/03/05 02:05:32;;;;;;;2.40;0.30;;;0.10;99.90;;;;;;4926873;29;20039;-74
2021/03/05 02:07:58;;;;;;;1.23;0.50;;;0.10;99.90;;;;;;4926948;29;20051;-74
2021/03/05 02:10:23;;;;;;;0.80;0.30;;;0.00;99.90;;;;;;4928259;29;20111;-74
2021/03/05 02:12:49;;;;;;;0.77;0.52;;;0.00;99.90;;;;;;4928228;29;20039;-75
2021/03/05 02:15:16;;;;;;;1.85;0.95;;;0.00;99.90;;;;;;4928586;29;20085;-74
2021/03/05 02:18:07;;;;;;;3.90;0.90;;;0.00;99.90;;;;;;4928430;29;20042;-74
2021/03/05 02:21:14;;;;;;;0.55;0.28;;;-0.10;99.90;;;;;;4928245;29;20496;-74
2021/03/05 02:23:55;;;;;;;0.60;0.52;;;-0.10;99.90;;;;;;4928276;29;20024;-74
2021/03/05 02:26:23;;;;;;;0.75;0.40;;;-0.10;99.90;;;;;;4928293;29;20032;-74
2021/03/05 02:29:21;;;;;;;5.72;0.95;;;-0.10;99.90;;;;;;4928359;29;20039;-74
2021/03/05 02:32:06;;;;;;;0.35;0.15;;;-0.10;99.90;;;;;;4928376;29;20033;-74
2021/03/05 02:34:36;;;;;;;1.17;0.47;;;-0.10;99.90;;;;;;4928066;29;20032;-74
2021/03/05 02:37:11;;;;;;;11.32;0.80;;;-0.10;99.90;;;;;;4928218;29;20063;-74
2021/03/05 02:39:48;;;;;;;1.55;0.63;;;-0.10;99.90;;;;;;4927762;29;20059;-73
2021/03/05 02:42:30;;;;;;;6.35;0.47;;;-0.10;99.90;;;;;;4928214;29;20040;-74
2021/03/05 02:45:06;;;;;;;0.85;0.50;;;-0.10;99.90;;;;;;4928138;29;20040;-73
2021/03/05 02:47:33;;;;;;;2.33;0.68;;;-0.10;99.90;;;;;;4931771;29;20474;-73
2021/03/05 02:49:58;;;;;;;0.73;0.65;;;-0.10;99.90;;;;;;4931664;29;20024;-74
2021/03/05 02:52:26;;;;;;;0.57;0.40;;;-0.10;99.90;;;;;;4931591;29;20034;-74
2021/03/05 02:54:56;;;;;;;9.75;1.38;;;-0.10;99.90;;;;;;4931642;29;20035;-75
2021/03/05 02:57:26;;;;;;;1.80;0.60;;;-0.10;99.90;;;;;;4931934;29;20110;-73
2021/03/05 02:59:52;;;;;;;3.47;0.40;;;-0.10;99.90;;;;;;4930443;29;20072;-73
2021/03/05 03:02:26;;;;;;;2.83;0.70;;;-0.10;99.90;;;;;;4931458;29;20056;-73
2021/03/05 03:04:55;;;;;;;2.70;0.28;;;-0.10;99.90;;;;;;4930160;29;20028;-73
2021/03/05 03:07:21;;;;;;;1.75;0.88;;;-0.20;99.90;;;;;;4931539;29;20084;-74
2021/03/05 03:09:48;;;;;;;1.35;0.65;;;-0.20;99.90;;;;;;4931446;29;20063;-73
2021/03/05 03:12:16;;;;;;;3.25;0.60;;;-0.20;99.90;;;;;;4931571;29;20035;-74
2021/03/05 03:14:43;;;;;;;0.15;0.15;;;-0.20;99.90;;;;;;4931267;29;20038;-73
2021/03/05 03:17:10;;;;;;;0.95;0.68;;;-0.20;99.90;;;;;;4931257;29;20028;-73
2021/03/05 03:19:39;;;;;;;0.30;0.20;;;-0.20;99.90;;;;;;4931491;29;20091;-73
2021/03/05 03:22:05;;;;;;;2.80;0.65;;;-0.20;99.90;;;;;;4931327;29;20025;-74
2021/03/05 03:24:34;;;;;;;1.70;0.57;;;-0.20;99.90;;;;;;4931122;29;20454;-73
2021/03/05 03:27:00;;;;;;;1.02;0.38;;;-0.30;99.90;;;;;;4931102;29;20032;-74
2021/03/05 03:29:26;;;;;;;1.77;0.68;;;-0.30;99.90;;;;;;4931041;29;20027;-73
2021/03/05 03:31:53;;;;;;;0.47;0.35;;;-0.30;99.90;;;;;;4930870;29;20032;-74
2021/03/05 03:34:20;;;;;;;0.30;0.30;;;-0.40;99.90;;;;;;4930862;29;20028;-74
2021/03/05 03:36:47;;;;;;;0.75;0.40;;;-0.40;99.90;;;;;;4930748;29;20028;-74
2021/03/05 03:39:13;;;;;;;0.73;0.35;;;-0.40;99.90;;;;;;4930998;29;20036;-73
2021/03/05 03:41:39;;;;;;;1.17;0.68;;;-0.50;99.90;;;;;;4930006;29;20092;-74
2021/03/05 03:44:07;;;;;;;2.30;0.95;;;-0.50;99.90;;;;;;4929729;29;20028;-73
2021/03/05 03:46:36;;;;;;;0.82;0.35;;;-0.60;99.90;;;;;;4929281;29;20039;-74
2021/03/05 03:49:07;;;;;;;1.40;0.50;;;-0.60;99.90;;;;;;4930638;29;20059;-74
2021/03/05 03:51:40;;;;;;;0.68;0.68;;;-0.60;99.90;;;;;;4930689;29;20036;-74
2021/03/05 03:54:07;;;;;;;2.37;0.90;;;-0.70;99.90;;;;;;4930747;29;20051;-73
2021/03/05 03:56:34;;;;;;;2.72;1.00;;;-0.70;99.90;;;;;;4930220;29;20276;-74
2021/03/05 03:59:02;;;;;;;3.25;0.95;;;-0.70;99.90;;;;;;4930275;29;20104;-73
2021/03/05 04:01:29;;;;;;;1.25;0.52;;;-0.70;99.90;;;;;;4930356;29;20036;-74
2021/03/05 04:03:55;;;;;;;10.60;0.70;;;-0.70;99.90;;;;;;4929905;29;20052;-74
2021/03/05 04:06:24;;;;;;;0.47;0.40;;;-0.70;99.90;;;;;;4930391;29;20080;-73
2021/03/05 04:08:51;;;;;;;4.30;0.85;;;-0.70;99.90;;;;;;4930553;29;20032;-74
2021/03/05 04:11:19;;;;;;;0.38;0.30;;;-0.70;99.90;;;;;;4929142;29;20032;-74
2021/03/05 04:13:46;;;;;;;0.47;0.43;;;-0.80;99.90;;;;;;4930528;29;20056;-74
2021/03/05 04:16:12;;;;;;;1.30;0.70;;;-0.80;99.90;;;;;;4930113;29;20055;-73
2021/03/05 04:18:39;;;;;;;2.17;0.43;;;-0.80;99.90;;;;;;4929903;29;20385;-74
2021/03/05 04:21:09;;;;;;;1.63;0.82;;;-0.90;99.90;;;;;;4930221;29;20081;-73
2021/03/05 04:23:35;;;;;;;3.17;1.10;;;-0.90;99.90;;;;;;4929771;29;20087;-74
2021/03/05 04:26:02;;;;;;;1.05;0.50;;;-0.90;99.90;;;;;;4929983;29;20428;-73
2021/03/05 04:28:28;;;;;;;1.23;0.80;;;-0.90;99.90;;;;;;4929938;29;20031;-74
2021/03/05 04:30:54;;;;;;;2.38;1.33;;;-0.90;99.90;;;;;;4930043;29;20055;-74
2021/03/05 04:33:20;;;;;;;0.85;0.38;;;-0.90;99.90;;;;;;4930202;29;20028;-74
2021/03/05 04:35:46;;;;;;;2.53;0.77;;;-0.90;99.90;;;;;;4930028;29;20048;-74
2021/03/05 04:38:12;;;;;;;3.30;0.63;;;-0.90;99.90;;;;;;4929830;29;20051;-73
2021/03/05 04:40:37;;;;;;;0.80;0.63;;;-0.90;99.90;;;;;;4929561;29;20047;-74
2021/03/05 04:43:03;;;;;;;0.52;0.45;;;-1.00;99.90;;;;;;4929733;29;20032;-74
2021/03/05 04:45:29;;;;;;;0.98;0.63;;;-1.00;99.90;;;;;;4929506;29;20450;-74
2021/03/05 04:47:54;;;;;;;1.48;0.57;;;-1.00;99.90;;;;;;4929825;29;20032;-74
2021/03/05 04:50:20;;;;;;;5.53;1.02;;;-1.00;99.90;;;;;;4929611;29;20025;-75
2021/03/05 04:52:46;;;;;;;1.77;1.48;;;-1.10;99.90;;;;;;4929735;29;20409;-74
2021/03/05 04:55:12;;;;;;;1.20;0.98;;;-1.00;99.90;;;;;;4929642;29;20055;-74
2021/03/05 04:57:37;;;;;;;1.27;0.63;;;-1.10;99.90;;;;;;4929605;29;20056;-73
2021/03/05 05:00:04;;;;;;;0.60;0.50;;;-1.10;99.90;;;;;;4929255;29;20052;-73
2021/03/05 05:02:30;;;;;;;0.95;0.82;;;-1.10;99.90;;;;;;4929293;29;20063;-74
2021/03/05 05:04:56;;;;;;;0.93;0.80;;;-1.10;99.90;;;;;;4927917;29;20020;-74
2021/03/05 05:07:22;;;;;;;8.45;1.13;;;-1.10;99.90;;;;;;4929373;29;20060;-75
2021/03/05 05:09:48;;;;;;;0.45;0.45;;;-1.10;99.90;;;;;;4928608;29;20039;-74
2021/03/05 05:12:14;;;;;;;3.40;0.65;;;-1.10;99.90;;;;;;4929449;29;20032;-74
2021/03/05 05:14:40;;;;;;;1.98;1.00;;;-1.20;99.90;;;;;;4927833;29;20074;-74
2021/03/05 05:17:06;;;;;;;1.90;0.70;;;-1.20;99.90;;;;;;4929046;29;20039;-74
2021/03/05 05:19:31;;;;;;;5.20;0.95;;;-1.20;99.90;;;;;;4928920;29;20036;-73
2021/03/05 05:21:57;;;;;;;0.52;0.52;;;-1.20;99.90;;;;;;4927651;29;20020;-74
2021/03/05 05:24:23;;;;;;;0.85;0.60;;;-1.30;99.90;;;;;;4929021;29;20028;-74
2021/03/05 05:26:49;;;;;;;3.50;0.85;;;-1.30;99.90;;;;;;4929514;29;20028;-74
2021/03/05 05:29:15;;;;;;;2.10;1.10;;;-1.30;99.90;;;;;;4928967;29;20091;-74
2021/03/05 05:31:40;;;;;;;1.00;0.50;;;-1.30;99.90;;;;;;4927579;29;20036;-74
2021/03/05 05:34:06;;;;;;;7.40;0.75;;;-1.30;99.90;;;;;;4928741;29;20032;-74
2021/03/05 05:36:31;;;;;;;3.20;0.60;;;-1.30;99.90;;;;;;4928918;29;20028;-74
2021/03/05 05:38:57;;;;;;;2.03;1.27;;;-1.30;99.90;;;;;;4928539;29;20111;-74
2021/03/05 05:41:24;;;;;;;2.08;0.93;;;-1.30;99.90;;;;;;4928554;29;20039;-74
2021/03/05 05:43:51;;;;;;;5.47;1.25;;;-1.30;99.90;;;;;;4928809;29;20025;-73
2021/03/05 05:46:20;;;;;;;1.17;0.82;;;-1.30;99.90;;;;;;4928980;29;20091;-74
2021/03/05 05:48:48;;;;;;;1.30;0.80;;;-1.20;99.90;;;;;;4928607;29;20059;-75
2021/03/05 05:51:17;;;;;;;2.75;0.90;;;-1.30;99.90;;;;;;4928688;29;20122;-74
2021/03/05 05:53:47;;;;;;;0.75;0.63;;;-1.30;99.90;;;;;;4927361;29;20024;-73
2021/03/05 05:56:18;;;;;;;1.75;0.75;;;-1.30;99.90;;;;;;4928500;29;20060;-73
2021/03/05 05:58:44;;;;;;;4.82;1.42;;;-1.30;99.90;;;;;;4928854;29;20035;-73
2021/03/05 06:01:11;;;;;;;9.88;1.90;;;-1.40;99.90;;;;;;4928220;29;20056;-73
2021/03/05 06:03:37;;;;;;;2.35;1.48;;;-1.40;99.90;;;;;;4927841;29;20095;-73
2021/03/05 06:06:03;;;;;;;2.25;1.05;;;-1.40;99.90;;;;;;4928239;29;20088;-72
2021/03/05 06:08:29;;;;;;;3.08;1.13;;;-1.50;99.90;;;;;;4928220;29;20047;-73
2021/03/05 06:10:55;;;;;;;1.75;0.82;;;-1.50;99.90;;;;;;4928269;29;20028;-73
2021/03/05 06:13:24;;;;;;;4.88;0.63;;;-1.50;99.90;;;;;;4928475;29;20029;-74
2021/03/05 06:16:19;;;;;;;1.80;0.90;;;-1.50;99.90;;;;;;4928201;29;20028;-73
2021/03/05 06:18:45;;;;;;;;;;;-1.50;99.90;;;;;;4928594;29;20052;-73
2021/03/05 06:21:12;;;;;;;1.75;0.82;;;-1.50;99.90;;;;;;4928157;29;19911;-73
2021/03/05 06:24:00;;;;;;;2.17;0.70;;;-1.50;99.90;;;;;;4919222;29;20044;-75
2021/03/05 06:26:26;;;;;;;7.70;1.73;;;-1.50;99.90;;;;;;4911558;29;20043;-74
2021/03/05 06:29:02;;;;;;;1.80;0.90;;;-1.50;99.90;;;;;;4922675;29;20032;-74
2021/03/05 06:31:28;;;;;;;1.73;0.90;;;-1.50;99.90;;;;;;4907409;29;20033;-73
2021/03/05 06:33:58;;;;;;;25.70;9.18;;;-1.50;99.90;;;;;;4909350;29;20056;-74
2021/03/05 06:36:24;;;;;;;17.02;3.30;;;-1.40;99.90;;;;;;4917513;29;20043;-75
2021/03/05 06:38:49;;;;;;;4.25;2.42;;;-1.40;99.90;;;;;;4917448;29;20045;-75
2021/03/05 06:41:21;;;;;;;97.75;31.80;;;-1.50;99.90;;;;;;4926451;29;20515;-74
2021/03/05 06:43:54;;;;;;;16.30;5.80;;;-1.40;99.90;;;;;;4928254;29;20087;-75
2021/03/05 06:46:25;;;;;;;5.68;3.05;;;-1.40;99.90;;;;;;4927551;29;20036;-75
2021/03/05 06:48:52;;;;;;;3.40;0.82;;;-1.40;99.90;;;;;;4924018;29;20034;-74
2021/03/05 06:51:17;;;;;;;3.90;1.10;;;-1.30;99.90;;;;;;4921146;29;20051;-75
2021/03/05 06:53:45;;;;;;;2.60;0.95;;;-1.30;99.90;;;;;;4923566;29;20063;-74
2021/03/05 06:56:31;;;;;;;3.17;1.60;;;-1.30;99.90;;;;;;4923457;29;20494;-74
2021/03/05 06:59:03;;;;;;;15.65;4.65;;;-1.20;99.90;;;;;;4908552;29;20029;-75
2021/03/05 07:01:29;;;;;;;9.82;2.90;;;-1.20;99.90;;;;;;4909151;29;20052;-74
2021/03/05 07:04:06;;;;;;;27.92;6.97;;;-1.10;99.90;;;;;;4915502;29;20072;-75
2021/03/05 07:06:32;;;;;;;10.73;4.35;;;-1.10;99.90;;;;;;4925426;29;20043;-75
2021/03/05 07:08:57;;;;;;;18.45;5.25;;;-1.10;99.90;;;;;;4912113;29;20029;-74
2021/03/05 07:11:43;;;;;;;2.70;1.17;;;-1.00;99.90;;;;;;4927699;29;20028;-75
2021/03/05 07:14:11;;;;;;;8.70;3.75;;;-0.90;99.90;;;;;;4926737;29;20393;-74
2021/03/05 07:16:45;;;;;;;11.80;3.63;;;-0.80;99.90;;;;;;4927711;29;20028;-74
2021/03/05 07:19:13;;;;;;;7.80;2.70;;;-0.70;99.90;;;;;;4927920;29;20044;-75
2021/03/05 07:21:41;;;;;;;5.90;2.20;;;-0.60;99.90;;;;;;4926371;29;20092;-74
2021/03/05 07:24:09;;;;;;;7.80;3.17;;;-0.50;99.90;;;;;;4918757;29;20025;-75
2021/03/05 07:26:42;;;;;;;15.10;6.38;;;-0.40;99.90;;;;;;4908783;29;20060;-74
2021/03/05 07:29:16;;;;;;;7.80;2.33;;;-0.30;99.90;;;;;;4908765;29;20025;-75
2021/03/05 07:31:43;;;;;;;12.40;4.93;;;-0.20;99.90;;;;;;4910016;29;20025;-75
2021/03/05 07:34:17;;;;;;;9.55;3.17;;;-0.10;99.90;;;;;;4911873;29;20321;-75
2021/03/05 07:36:50;;;;;;;1.33;0.80;;;0.10;99.90;;;;;;4912205;29;20032;-75
2021/03/05 07:39:39;;;;;;;2.53;1.65;;;0.20;99.90;;;;;;4911948;29;20041;-75
2021/03/05 07:42:07;;;;;;;4.20;0.95;;;0.30;99.90;;;;;;4919717;29;20100;-75
2021/03/05 07:44:35;;;;;;;6.88;1.17;;;0.50;99.90;;;;;;4930645;29;20036;-75
2021/03/05 07:47:06;;;;;;;3.65;1.10;;;0.70;99.90;;;;;;4929473;29;20035;-75
2021/03/05 07:49:32;;;;;;;2.63;1.58;;;1.00;99.90;;;;;;4930288;29;20032;-75
2021/03/05 07:51:59;;;;;;;1.25;0.47;;;1.30;99.90;;;;;;4930638;29;20097;-75
2021/03/05 07:54:39;;;;;;;19.17;0.95;;;1.60;99.90;;;;;;4930313;29;20028;-76
2021/03/05 07:57:06;;;;;;;3.75;0.98;;;1.90;99.90;;;;;;4930661;29;20081;-75
2021/03/05 07:59:37;;;;;;;0.70;0.45;;;2.10;99.90;;;;;;4928857;29;20066;-75
2021/03/05 08:02:04;;;;;;;1.27;0.75;;;2.30;99.90;;;;;;4929041;29;20047;-75
2021/03/05 08:04:52;;;;;;;1.35;0.80;;;2.50;99.90;;;;;;4912344;29;20060;-75
2021/03/05 08:07:23;;;;;;;1.05;0.82;;;2.70;99.90;;;;;;4911773;29;20024;-77
2021/03/05 08:09:49;;;;;;;4.25;0.93;;;2.90;99.90;;;;;;4911066;29;20028;-76
2021/03/05 08:12:45;;;;;;;1.30;0.50;;;3.10;99.90;;;;;;4911324;29;20077;-76
2021/03/05 08:15:11;;;;;;;0.65;0.60;;;3.30;99.90;;;;;;4911058;29;20046;-77
2021/03/05 08:17:45;;;;;;;0.40;0.30;;;3.40;99.90;;;;;;4911196;29;20103;-75
2021/03/05 08:20:18;;;;;;;2.63;1.17;;;3.60;99.90;;;;;;4911210;29;20047;-75
2021/03/05 08:22:58;;;;;;;2.53;0.70;;;3.70;99.90;;;;;;4911355;29;20025;-76
2021/03/05 08:25:24;;;;;;;0.65;0.55;;;3.90;99.90;;;;;;4911120;29;20045;-76
2021/03/05 08:27:50;;;;;;;1.75;0.50;;;4.20;99.90;;;;;;4911292;29;20029;-75
2021/03/05 08:30:19;;;;;;;3.92;0.57;;;4.40;99.90;;;;;;4911081;29;20221;-76
2021/03/05 08:32:49;;;;;;;2.55;1.15;;;4.60;99.90;;;;;;4909837;29;20061;-76
2021/03/05 08:35:39;;;;;;;1.15;0.68;;;4.70;99.90;;;;;;4910954;29;20032;-76
2021/03/05 08:38:04;;;;;;;1.33;0.73;;;4.90;99.90;;;;;;4910645;29;20039;-75
2021/03/05 08:40:31;;;;;;;0.63;0.40;;;5.20;99.90;;;;;;4909717;29;20040;-75
2021/03/05 08:43:09;;;;;;;1.25;0.60;;;5.30;99.90;;;;;;4908462;29;20058;-76
2021/03/05 08:45:46;;;;;;;0.98;0.65;;;5.50;99.90;;;;;;4910335;29;20066;-75
2021/03/05 08:48:15;;;;;;;1.17;0.65;;;5.60;99.90;;;;;;4909300;29;20076;-76
2021/03/05 08:50:42;;;;;;;1.38;0.55;;;5.70;99.90;;;;;;4909094;29;20021;-76
2021/03/05 08:53:12;;;;;;;0.35;0.30;;;5.80;99.90;;;;;;4909985;29;20051;-76
2021/03/05 08:55:41;;;;;;;4.28;0.80;;;6.00;99.90;;;;;;4910143;29;20029;-76
2021/03/05 08:58:07;;;;;;;2.95;1.27;;;6.00;99.90;;;;;;4910258;29;20043;-76
2021/03/05 09:00:35;;;;;;;4.43;0.93;;;6.10;99.90;;;;;;4919477;29;20718;-77
2021/03/05 09:03:05;;;;;;;3.85;1.27;;;6.10;99.90;;;;;;4928909;29;20137;-77
2021/03/05 09:05:33;;;;;;;9.93;3.15;;;6.10;99.90;;;;;;4928959;29;20036;-77
2021/03/05 09:07:59;;;;;;;1.15;0.50;;;6.20;99.90;;;;;;4929132;29;20063;-76
2021/03/05 09:10:57;;;;;;;1.23;0.77;;;6.10;99.90;;;;;;4910740;29;20029;-76
2021/03/05 09:13:34;;;;;;;3.38;1.52;;;6.20;99.90;;;;;;4925874;29;20032;-77
2021/03/05 09:16:02;;;;;;;0.40;0.22;;;6.40;99.90;;;;;;4928948;29;20048;-77
2021/03/05 09:18:36;;;;;;;5.18;0.50;;;6.50;99.90;;;;;;4924572;29;20028;-76
2021/03/05 09:21:09;;;;;;;1.13;0.32;;;6.50;99.90;;;;;;4908723;29;20103;-77
2021/03/05 09:23:41;;;;;;;0.70;0.35;;;6.50;99.90;;;;;;4912164;29;20032;-76
2021/03/05 09:26:09;;;;;;;0.82;0.50;;;6.70;99.90;;;;;;4928840;29;20027;-76
2021/03/05 09:28:59;;;;;;;0.82;0.50;;;6.90;99.90;;;;;;4928956;29;20040;-76
2021/03/05 09:31:25;;;;;;;0.70;0.40;;;7.00;99.90;;;;;;4927478;29;20043;-76
2021/03/05 09:33:52;;;;;;;0.32;0.32;;;7.10;99.90;;;;;;4928765;29;20032;-76
2021/03/05 09:36:23;;;;;;;1.80;0.68;;;7.20;99.90;;;;;;4928760;29;20040;-77
2021/03/05 09:39:03;;;;;;;1.63;0.70;;;7.30;99.90;;;;;;4927312;29;20028;-77
2021/03/05 09:41:30;;;;;;;1.35;0.63;;;7.50;99.90;;;;;;4918247;29;20028;-76
2021/03/05 09:44:08;;;;;;;1.98;0.32;;;7.50;99.90;;;;;;4913102;29;20028;-75
2021/03/05 09:46:35;;;;;;;0.90;0.30;;;7.40;99.90;;;;;;4927738;29;20044;-75
2021/03/05 09:49:21;;;;;;;1.25;0.38;;;7.40;99.90;;;;;;4909025;29;20036;-75
2021/03/05 09:51:48;;;;;;;2.83;0.52;;;7.50;99.90;;;;;;4926194;29;20032;-76
2021/03/05 09:54:14;;;;;;;0.30;0.30;;;7.70;99.90;;;;;;4917306;29;20040;-75
2021/03/05 09:56:45;;;;;;;1.63;0.38;;;7.80;99.90;;;;;;4914871;29;20131;-75
2021/03/05 09:59:12;;;;;;;1.40;0.60;;;8.00;99.90;;;;;;4926474;29;20040;-75
2021/03/05 10:01:44;;;;;;;0.80;0.20;;;8.10;99.90;;;;;;4928026;29;20035;-75
2021/03/05 10:04:12;;;;;;;1.45;0.43;;;8.20;99.90;;;;;;4906985;29;20071;-74
2021/03/05 10:06:51;;;;;;;4.22;0.32;;;8.40;99.90;;;;;;4907856;29;20033;-76
2021/03/05 10:09:21;;;;;;;0.00;0.00;;;8.50;99.90;;;;;;4926755;29;20035;-75
2021/03/05 10:11:47;;;;;;;0.85;0.40;;;8.70;99.90;;;;;;4927975;29;20052;-75
2021/03/05 10:14:34;;;;;;;3.50;0.73;;;9.00;99.90;;;;;;4928385;29;20836;-76
2021/03/05 10:17:12;;;;;;;0.68;0.50;;;9.20;99.90;;;;;;4925736;29;20123;-76
2021/03/05 10:19:39;;;;;;;0.57;0.40;;;9.30;99.90;;;;;;4913040;29;20054;-76
2021/03/05 10:22:07;;;;;;;0.30;0.30;;;9.40;99.90;;;;;;4908926;29;20478;-75
2021/03/05 10:24:33;;;;;;;1.38;0.57;;;9.40;99.90;;;;;;4907435;29;20105;-75
2021/03/05 10:27:11;;;;;;;0.20;0.20;;;9.40;99.90;;;;;;4907632;29;20157;-75
2021/03/05 10:29:49;;;;;;;1.15;0.50;;;9.50;99.90;;;;;;4908155;29;20061;-75
2021/03/05 10:32:18;;;;;;;0.80;0.45;;;9.70;99.90;;;;;;4922700;29;20024;-75
2021/03/05 10:34:46;;;;;;;0.60;0.38;;;9.90;99.90;;;;;;4905836;29;20024;-75
2021/03/05 10:37:12;;;;;;;1.35;0.60;;;10.00;99.90;;;;;;4908199;29;20064;-74
2021/03/05 10:39:38;;;;;;;1.27;0.43;;;10.10;99.90;;;;;;4907980;29;20040;-76
2021/03/05 10:42:05;;;;;;;2.22;0.90;;;10.20;99.90;;;;;;4908039;29;20055;-75
2021/03/05 10:44:32;;;;;;;1.05;0.43;;;10.40;99.90;;;;;;4906683;29;20029;-77
2021/03/05 10:46:59;;;;;;;0.82;0.30;;;10.60;97.50;;;;;;4907688;29;20028;-76
2021/03/05 10:49:26;;;;;;;1.98;0.90;;;10.60;99.90;;;;;;4909423;29;20032;-76
2021/03/05 10:51:53;;;;;;;0.40;0.20;;;10.70;99.90;;;;;;4910744;29;20092;-77
2021/03/05 10:54:18;;;;;;;0.28;0.20;;;10.90;98.00;;;;;;4907795;29;20048;-76
2021/03/05 10:56:44;;;;;;;0.57;0.40;;;11.20;97.80;;;;;;4907059;29;20028;-76
2021/03/05 10:59:11;;;;;;;0.35;0.10;;;11.20;98.00;;;;;;4907921;29;20172;-75
2021/03/05 11:01:37;;;;;;;0.20;0.20;;;11.50;98.10;;;;;;4914848;29;20032;-75
2021/03/05 11:04:04;;;;;;;0.28;0.20;;;11.70;97.30;;;;;;4926046;29;20054;-75
2021/03/05 11:06:29;;;;;;;0.68;0.32;;;12.10;97.20;;;;;;4927319;29;20039;-75
2021/03/05 11:08:55;;;;;;;0.55;0.28;;;12.20;92.60;;;;;;4928393;29;20024;-76
2021/03/05 11:11:21;;;;;;;0.30;0.20;;;12.00;90.90;;;;;;4930226;29;20330;-76
2021/03/05 11:13:47;;;;;;;0.50;0.40;;;11.90;93.60;;;;;;4930471;29;20099;-76
2021/03/05 11:16:12;;;;;;;1.75;0.20;;;12.20;93.00;;;;;;4930730;29;20450;-76
2021/03/05 11:18:38;;;;;;;0.45;0.20;;;12.30;86.80;;;;;;4930265;29;20048;-75
2021/03/05 11:21:04;;;;;;;1.13;0.45;;;12.10;90.00;;;;;;4930230;29;20044;-76
2021/03/05 11:23:30;;;;;;;0.50;0.22;;;12.10;90.40;;;;;;4928975;29;20067;-76
2021/03/05 11:25:55;;;;;;;2.67;0.77;;;12.40;91.80;;;;;;4930234;29;20039;-77
2021/03/05 11:28:21;;;;;;;1.88;0.68;;;12.80;91.40;;;;;;4929204;29;20038;-77
2021/03/05 11:30:46;;;;;;;1.63;0.73;;;13.20;89.80;;;;;;4930352;29;20123;-78
2021/03/05 11:33:12;;;;;;;1.90;0.40;;;13.20;88.70;;;;;;4928739;29;20051;-77
2021/03/05 11:35:38;;;;;;;0.77;0.30;;;13.50;85.00;;;;;;4929456;29;20174;-77
2021/03/05 11:38:04;;;;;;;0.40;0.30;;;13.60;86.60;;;;;;4929695;29;20035;-76
2021/03/05 11:40:30;;;;;;;6.25;0.20;;;13.80;85.70;;;;;;4929670;29;20055;-77
2021/03/05 11:42:55;;;;;;;7.57;0.50;;;14.10;87.10;;;;;;4929792;29;20029;-76
2021/03/05 11:45:22;;;;;;;3.40;0.43;;;14.00;84.20;;;;;;4928758;29;20499;-77
2021/03/05 11:47:47;;;;;;;0.32;0.22;;;14.20;82.60;;;;;;4929989;29;20032;-77
2021/03/05 11:50:14;;;;;;;0.40;0.30;;;14.30;84.70;;;;;;4928578;29;20036;-76
2021/03/05 11:52:40;;;;;;;0.95;0.40;;;14.40;83.10;;;;;;4928384;29;20056;-76
2021/03/05 11:55:07;;;;;;;0.40;0.28;;;14.70;82.60;;;;;;4928428;29;20050;-76
2021/03/05 11:57:33;;;;;;;1.10;0.20;;;14.80;79.60;;;;;;4930613;29;20056;-76
2021/03/05 11:59:58;;;;;;;1.00;0.22;;;14.40;83.20;;;;;;4929041;29;20040;-77
2021/03/05 12:02:24;;;;;;;0.98;0.25;;;14.40;81.20;;;;;;4925847;29;20075;-77
2021/03/05 12:04:50;;;;;;;1.23;0.43;;;14.50;84.20;;;;;;4920375;29;20052;-77
2021/03/05 12:07:16;;;;;;;0.55;0.40;;;14.60;81.50;;;;;;4923132;29;20036;-77
2021/03/05 12:09:42;;;;;;;2.88;0.82;;;14.80;79.20;;;;;;4915643;29;20047;-76
2021/03/05 12:12:08;;;;;;;0.73;0.57;;;15.10;79.10;;;;;;4909771;29;20072;-77
2021/03/05 12:14:33;;;;;;;0.20;0.13;;;15.20;81.90;;;;;;4909895;29;20063;-77
2021/03/05 12:16:59;;;;;;;0.63;0.32;;;15.20;78.20;;;;;;4910322;29;20028;-77
2021/03/05 12:19:24;;;;;;;1.33;0.47;;;15.50;76.80;;;;;;4909612;29;20041;-78
2021/03/05 12:21:50;;;;;;;2.85;0.52;;;15.60;72.90;;;;;;4909794;29;20029;-77
2021/03/05 12:24:23;;;;;;;0.90;0.30;;;15.90;73.00;;;;;;4918418;29;20066;-78
2021/03/05 12:26:48;;;;;;;0.65;0.30;;;16.00;73.90;;;;;;4923745;29;20095;-78
2021/03/05 12:29:14;;;;;;;0.55;0.40;;;15.90;71.60;;;;;;4929567;29;20036;-77
2021/03/05 12:31:39;;;;;;;2.10;0.68;;;16.10;73.40;;;;;;4929333;29;20060;-77
2021/03/05 12:34:05;;;;;;;0.15;0.15;;;16.20;68.60;;;;;;4926570;29;20075;-77
2021/03/05 12:36:31;;;;;;;0.30;0.10;;;15.50;68.10;;;;;;4926130;29;20051;-77
2021/03/05 12:38:56;;;;;;;0.57;0.17;;;14.10;69.50;;;;;;4929485;29;20068;-76
2021/03/05 12:41:22;;;;;;;3.20;0.40;;;13.00;70.70;;;;;;4928087;29;20039;-77
2021/03/05 12:43:48;;;;;;;1.05;0.43;;;12.10;73.40;;;;;;4929361;29;20040;-77
2021/03/05 12:46:13;;;;;;;0.65;0.30;;;12.00;75.80;;;;;;4929629;29;20131;-77
2021/03/05 12:48:40;;;;;;;0.90;0.20;;;12.50;75.80;;;;;;4929010;29;20028;-76
2021/03/05 12:51:05;;;;;;;5.18;0.70;;;12.90;72.50;;;;;;4928020;29;20032;-75
2021/03/05 12:53:31;;;;;;;0.52;0.25;;;13.40;70.20;;;;;;4929487;29;20035;-77
2021/03/05 12:55:57;;;;;;;1.05;0.43;;;13.60;71.10;;;;;;4929273;29;20028;-77
2021/03/05 12:58:23;;;;;;;3.90;0.30;;;14.20;71.60;;;;;;4929382;29;20023;-76